sensor_id;sensor_type;location;lat;lon;timestamp;P1;durP1;ratioP1;P2;durP2;ratioP2
1831;SDS011;1680;48.106;11.708;2022-07-23T00:01:54;9.33;;;8.53;;
1831;SDS011;1680;48.106;11.708;2022-07-23T00:04:21;8.03;;;7.50;;
1831;SDS011;1680;48.106;11.708;2022-07-23T00:06:47;8.83;;;8.23;;
1831;SDS011;1680;48.106;11.708;2022-07-23T00:09:14;8.43;;;7.77;;
1831;SDS011;1680;48.106;11.708;2022-07-23T00:11:42;8.60;;;7.90;;
1831;SDS011;1680;48.106;11.708;2022-07-23T00:14:09;8.53;;;7.83;;
1831;SDS011;1680;48.106;11.708;2022-07-23T00:16:35;8.40;;;7.67;;
1831;SDS011;1680;48.106;11.708;2022-07-23T00:19:02;8.17;;;7.47;;
1831;SDS011;1680;48.106;11.708;2022-07-23T00:21:29;8.70;;;8.00;;
1831;SDS011;1680;48.106;11.708;2022-07-23T00:23:55;8.60;;;8.00;;
1831;SDS011;1680;48.106;11.708;2022-07-23T00:26:22;8.80;;;8.10;;
1831;SDS011;1680;48.106;11.708;2022-07-23T00:28:54;8.53;;;7.93;;
1831;SDS011;1680;48.106;11.708;2022-07-23T00:31:25;8.57;;;7.97;;
1831;SDS011;1680;48.106;11.708;2022-07-23T00:33:52;8.53;;;7.90;;
1831;SDS011;1680;48.106;11.708;2022-07-23T00:36:21;9.07;;;8.37;;
1831;SDS011;1680;48.106;11.708;2022-07-23T00:38:48;8.60;;;8.00;;
1831;SDS011;1680;48.106;11.708;2022-07-23T00:41:15;8.97;;;8.23;;
1831;SDS011;1680;48.106;11.708;2022-07-23T00:43:42;9.00;;;8.40;;
1831;SDS011;1680;48.106;11.708;2022-07-23T00:46:10;8.50;;;7.80;;
1831;SDS011;1680;48.106;11.708;2022-07-23T00:48:37;8.63;;;8.03;;
1831;SDS011;1680;48.106;11.708;2022-07-23T00:51:04;8.57;;;7.87;;
1831;SDS011;1680;48.106;11.708;2022-07-23T00:53:30;8.70;;;8.10;;
1831;SDS011;1680;48.106;11.708;2022-07-23T00:55:57;7.97;;;7.37;;
1831;SDS011;1680;48.106;11.708;2022-07-23T00:58:24;8.37;;;7.67;;
1831;SDS011;1680;48.106;11.708;2022-07-23T01:00:51;8.30;;;7.60;;
1831;SDS011;1680;48.106;11.708;2022-07-23T01:03:19;8.47;;;7.87;;
1831;SDS011;1680;48.106;11.708;2022-07-23T01:05:47;8.30;;;7.60;;
1831;SDS011;1680;48.106;11.708;2022-07-23T01:08:14;7.83;;;7.23;;
1831;SDS011;1680;48.106;11.708;2022-07-23T01:10:42;8.13;;;7.53;;
1831;SDS011;1680;48.106;11.708;2022-07-23T01:13:09;8.03;;;7.33;;
1831;SDS011;1680;48.106;11.708;2022-07-23T01:15:37;8.53;;;7.70;;
1831;SDS011;1680;48.106;11.708;2022-07-23T01:18:05;8.33;;;7.63;;
1831;SDS011;1680;48.106;11.708;2022-07-23T01:20:34;8.97;;;8.37;;
1831;SDS011;1680;48.106;11.708;2022-07-23T01:23:03;8.53;;;7.93;;
1831;SDS011;1680;48.106;11.708;2022-07-23T01:25:29;9.60;;;8.80;;
1831;SDS011;1680;48.106;11.708;2022-07-23T01:27:56;10.00;;;9.10;;
1831;SDS011;1680;48.106;11.708;2022-07-23T01:30:23;11.00;;;10.10;;
1831;SDS011;1680;48.106;11.708;2022-07-23T01:32:49;11.47;;;10.47;;
1831;SDS011;1680;48.106;11.708;2022-07-23T01:35:16;11.33;;;10.33;;
1831;SDS011;1680;48.106;11.708;2022-07-23T01:37:43;11.00;;;10.00;;
1831;SDS011;1680;48.106;11.708;2022-07-23T01:40:11;11.73;;;8.80;;
1831;SDS011;1680;48.106;11.708;2022-07-23T01:42:38;9.60;;;8.80;;
1831;SDS011;1680;48.106;11.708;2022-07-23T01:45:05;9.70;;;8.70;;
1831;SDS011;1680;48.106;11.708;2022-07-23T01:47:32;7.83;;;7.13;;
1831;SDS011;1680;48.106;11.708;2022-07-23T01:49:59;8.03;;;6.33;;
1831;SDS011;1680;48.106;11.708;2022-07-23T01:52:26;7.83;;;5.90;;
1831;SDS011;1680;48.106;11.708;2022-07-23T01:54:53;5.77;;;4.20;;
1831;SDS011;1680;48.106;11.708;2022-07-23T01:57:21;4.93;;;4.53;;
1831;SDS011;1680;48.106;11.708;2022-07-23T01:59:48;4.80;;;3.70;;
1831;SDS011;1680;48.106;11.708;2022-07-23T02:02:15;5.10;;;4.60;;
1831;SDS011;1680;48.106;11.708;2022-07-23T02:04:41;5.60;;;5.10;;
1831;SDS011;1680;48.106;11.708;2022-07-23T02:07:08;10.80;;;5.73;;
1831;SDS011;1680;48.106;11.708;2022-07-23T02:09:35;5.40;;;4.90;;
1831;SDS011;1680;48.106;11.708;2022-07-23T02:12:02;5.47;;;4.93;;
1831;SDS011;1680;48.106;11.708;2022-07-23T02:14:30;5.53;;;4.77;;
1831;SDS011;1680;48.106;11.708;2022-07-23T02:16:57;5.07;;;4.57;;
1831;SDS011;1680;48.106;11.708;2022-07-23T02:19:24;5.03;;;4.57;;
1831;SDS011;1680;48.106;11.708;2022-07-23T02:21:50;4.77;;;4.37;;
1831;SDS011;1680;48.106;11.708;2022-07-23T02:24:17;5.40;;;4.90;;
1831;SDS011;1680;48.106;11.708;2022-07-23T02:26:44;4.80;;;4.40;;
1831;SDS011;1680;48.106;11.708;2022-07-23T02:29:10;5.07;;;4.67;;
1831;SDS011;1680;48.106;11.708;2022-07-23T02:31:38;5.30;;;4.80;;
1831;SDS011;1680;48.106;11.708;2022-07-23T02:34:05;4.87;;;4.50;;
1831;SDS011;1680;48.106;11.708;2022-07-23T02:36:32;5.40;;;5.00;;
1831;SDS011;1680;48.106;11.708;2022-07-23T02:38:58;4.40;;;4.10;;
1831;SDS011;1680;48.106;11.708;2022-07-23T02:41:25;4.50;;;4.07;;
1831;SDS011;1680;48.106;11.708;2022-07-23T02:43:52;4.17;;;3.87;;
1831;SDS011;1680;48.106;11.708;2022-07-23T02:46:18;4.33;;;3.97;;
1831;SDS011;1680;48.106;11.708;2022-07-23T02:48:46;4.57;;;4.07;;
1831;SDS011;1680;48.106;11.708;2022-07-23T02:51:13;3.70;;;3.40;;
1831;SDS011;1680;48.106;11.708;2022-07-23T02:53:40;3.93;;;3.40;;
1831;SDS011;1680;48.106;11.708;2022-07-23T02:56:06;3.50;;;3.20;;
1831;SDS011;1680;48.106;11.708;2022-07-23T02:58:33;4.30;;;3.90;;
1831;SDS011;1680;48.106;11.708;2022-07-23T03:01:00;3.80;;;3.50;;
1831;SDS011;1680;48.106;11.708;2022-07-23T03:03:27;4.00;;;3.60;;
1831;SDS011;1680;48.106;11.708;2022-07-23T03:05:55;4.10;;;3.80;;
1831;SDS011;1680;48.106;11.708;2022-07-23T03:08:22;4.50;;;4.20;;
1831;SDS011;1680;48.106;11.708;2022-07-23T03:10:48;4.80;;;4.50;;
1831;SDS011;1680;48.106;11.708;2022-07-23T03:13:15;5.20;;;4.70;;
1831;SDS011;1680;48.106;11.708;2022-07-23T03:15:42;5.40;;;5.00;;
1831;SDS011;1680;48.106;11.708;2022-07-23T03:18:08;5.43;;;5.03;;
1831;SDS011;1680;48.106;11.708;2022-07-23T03:20:35;5.03;;;4.60;;
1831;SDS011;1680;48.106;11.708;2022-07-23T03:23:03;5.70;;;5.30;;
1831;SDS011;1680;48.106;11.708;2022-07-23T03:25:30;5.77;;;5.27;;
1831;SDS011;1680;48.106;11.708;2022-07-23T03:27:57;5.63;;;5.13;;
1831;SDS011;1680;48.106;11.708;2022-07-23T03:30:23;5.83;;;5.33;;
1831;SDS011;1680;48.106;11.708;2022-07-23T03:32:50;5.43;;;5.00;;
1831;SDS011;1680;48.106;11.708;2022-07-23T03:35:16;5.70;;;5.20;;
1831;SDS011;1680;48.106;11.708;2022-07-23T03:37:43;6.30;;;5.70;;
1831;SDS011;1680;48.106;11.708;2022-07-23T03:40:11;6.23;;;5.73;;
1831;SDS011;1680;48.106;11.708;2022-07-23T03:42:38;5.90;;;5.40;;
1831;SDS011;1680;48.106;11.708;2022-07-23T03:45:07;6.40;;;5.83;;
1831;SDS011;1680;48.106;11.708;2022-07-23T03:47:34;7.10;;;5.83;;
1831;SDS011;1680;48.106;11.708;2022-07-23T03:50:01;6.33;;;5.73;;
1831;SDS011;1680;48.106;11.708;2022-07-23T03:52:27;6.50;;;5.90;;
1831;SDS011;1680;48.106;11.708;2022-07-23T03:54:54;6.30;;;5.83;;
1831;SDS011;1680;48.106;11.708;2022-07-23T03:57:22;6.57;;;5.97;;
1831;SDS011;1680;48.106;11.708;2022-07-23T03:59:49;6.27;;;5.77;;
1831;SDS011;1680;48.106;11.708;2022-07-23T04:02:15;6.43;;;5.90;;
1831;SDS011;1680;48.106;11.708;2022-07-23T04:04:42;6.93;;;6.33;;
1831;SDS011;1680;48.106;11.708;2022-07-23T04:07:08;7.43;;;6.73;;
1831;SDS011;1680;48.106;11.708;2022-07-23T04:09:35;7.47;;;6.87;;
1831;SDS011;1680;48.106;11.708;2022-07-23T04:12:02;8.80;;;7.77;;
1831;SDS011;1680;48.106;11.708;2022-07-23T04:14:30;8.03;;;7.23;;
1831;SDS011;1680;48.106;11.708;2022-07-23T04:16:57;8.30;;;7.60;;
1831;SDS011;1680;48.106;11.708;2022-07-23T04:19:24;8.00;;;7.40;;
1831;SDS011;1680;48.106;11.708;2022-07-23T04:21:51;7.70;;;7.10;;
1831;SDS011;1680;48.106;11.708;2022-07-23T04:24:17;7.33;;;6.73;;
1831;SDS011;1680;48.106;11.708;2022-07-23T04:26:44;8.17;;;7.47;;
1831;SDS011;1680;48.106;11.708;2022-07-23T04:29:11;7.47;;;6.87;;
1831;SDS011;1680;48.106;11.708;2022-07-23T04:31:39;8.70;;;8.00;;
1831;SDS011;1680;48.106;11.708;2022-07-23T04:34:06;7.33;;;6.73;;
1831;SDS011;1680;48.106;11.708;2022-07-23T04:36:32;8.00;;;7.30;;
1831;SDS011;1680;48.106;11.708;2022-07-23T04:38:59;8.73;;;8.03;;
1831;SDS011;1680;48.106;11.708;2022-07-23T04:41:26;7.97;;;7.37;;
1831;SDS011;1680;48.106;11.708;2022-07-23T04:43:52;7.90;;;7.30;;
1831;SDS011;1680;48.106;11.708;2022-07-23T04:46:19;8.90;;;8.20;;
1831;SDS011;1680;48.106;11.708;2022-07-23T04:48:47;8.47;;;7.87;;
1831;SDS011;1680;48.106;11.708;2022-07-23T04:51:13;8.00;;;7.40;;
1831;SDS011;1680;48.106;11.708;2022-07-23T04:53:40;7.77;;;7.13;;
1831;SDS011;1680;48.106;11.708;2022-07-23T04:56:07;7.77;;;7.07;;
1831;SDS011;1680;48.106;11.708;2022-07-23T04:58:34;8.33;;;7.73;;
1831;SDS011;1680;48.106;11.708;2022-07-23T05:01:01;7.43;;;6.83;;
1831;SDS011;1680;48.106;11.708;2022-07-23T05:03:27;8.10;;;7.50;;
1831;SDS011;1680;48.106;11.708;2022-07-23T05:05:55;8.23;;;7.53;;
1831;SDS011;1680;48.106;11.708;2022-07-23T05:08:22;8.93;;;8.23;;
1831;SDS011;1680;48.106;11.708;2022-07-23T05:10:49;9.20;;;7.87;;
1831;SDS011;1680;48.106;11.708;2022-07-23T05:13:16;8.87;;;8.10;;
1831;SDS011;1680;48.106;11.708;2022-07-23T05:15:43;8.63;;;7.93;;
1831;SDS011;1680;48.106;11.708;2022-07-23T05:18:10;8.80;;;8.10;;
1831;SDS011;1680;48.106;11.708;2022-07-23T05:20:38;9.07;;;8.37;;
1831;SDS011;1680;48.106;11.708;2022-07-23T05:23:06;8.90;;;8.20;;
1831;SDS011;1680;48.106;11.708;2022-07-23T05:25:33;8.83;;;8.03;;
1831;SDS011;1680;48.106;11.708;2022-07-23T05:27:59;8.83;;;8.03;;
1831;SDS011;1680;48.106;11.708;2022-07-23T05:30:26;9.43;;;8.63;;
1831;SDS011;1680;48.106;11.708;2022-07-23T05:32:53;8.33;;;7.63;;
1831;SDS011;1680;48.106;11.708;2022-07-23T05:35:19;9.20;;;8.50;;
1831;SDS011;1680;48.106;11.708;2022-07-23T05:37:46;7.90;;;7.30;;
1831;SDS011;1680;48.106;11.708;2022-07-23T05:40:14;9.27;;;8.27;;
1831;SDS011;1680;48.106;11.708;2022-07-23T05:42:41;8.30;;;7.60;;
1831;SDS011;1680;48.106;11.708;2022-07-23T05:45:08;9.10;;;8.30;;
1831;SDS011;1680;48.106;11.708;2022-07-23T05:47:40;9.00;;;8.30;;
1831;SDS011;1680;48.106;11.708;2022-07-23T05:50:08;9.00;;;8.20;;
1831;SDS011;1680;48.106;11.708;2022-07-23T05:52:35;8.97;;;8.27;;
1831;SDS011;1680;48.106;11.708;2022-07-23T05:55:02;9.03;;;8.33;;
1831;SDS011;1680;48.106;11.708;2022-07-23T05:57:30;8.90;;;8.20;;
1831;SDS011;1680;48.106;11.708;2022-07-23T05:59:57;9.00;;;8.27;;
1831;SDS011;1680;48.106;11.708;2022-07-23T06:02:23;9.30;;;8.40;;
1831;SDS011;1680;48.106;11.708;2022-07-23T06:04:50;8.17;;;7.57;;
1831;SDS011;1680;48.106;11.708;2022-07-23T06:07:17;8.70;;;8.10;;
1831;SDS011;1680;48.106;11.708;2022-07-23T06:09:44;8.80;;;8.13;;
1831;SDS011;1680;48.106;11.708;2022-07-23T06:12:12;8.90;;;8.10;;
1831;SDS011;1680;48.106;11.708;2022-07-23T06:14:40;8.67;;;7.97;;
1831;SDS011;1680;48.106;11.708;2022-07-23T06:17:07;9.40;;;8.60;;
1831;SDS011;1680;48.106;11.708;2022-07-23T06:19:34;9.73;;;8.83;;
1831;SDS011;1680;48.106;11.708;2022-07-23T06:22:01;9.60;;;8.60;;
1831;SDS011;1680;48.106;11.708;2022-07-23T06:24:28;8.90;;;8.10;;
1831;SDS011;1680;48.106;11.708;2022-07-23T06:26:55;9.17;;;8.37;;
1831;SDS011;1680;48.106;11.708;2022-07-23T06:29:21;9.83;;;8.83;;
1831;SDS011;1680;48.106;11.708;2022-07-23T06:31:49;8.70;;;8.00;;
1831;SDS011;1680;48.106;11.708;2022-07-23T06:34:16;10.17;;;9.27;;
1831;SDS011;1680;48.106;11.708;2022-07-23T06:36:43;9.10;;;8.30;;
1831;SDS011;1680;48.106;11.708;2022-07-23T06:39:09;10.63;;;9.70;;
1831;SDS011;1680;48.106;11.708;2022-07-23T06:41:36;10.00;;;9.20;;
1831;SDS011;1680;48.106;11.708;2022-07-23T06:44:03;9.97;;;9.17;;
1831;SDS011;1680;48.106;11.708;2022-07-23T06:46:30;10.47;;;9.43;;
1831;SDS011;1680;48.106;11.708;2022-07-23T06:48:58;10.30;;;9.27;;
1831;SDS011;1680;48.106;11.708;2022-07-23T06:51:24;9.80;;;8.90;;
1831;SDS011;1680;48.106;11.708;2022-07-23T06:53:51;9.50;;;8.70;;
1831;SDS011;1680;48.106;11.708;2022-07-23T06:56:18;9.90;;;9.10;;
1831;SDS011;1680;48.106;11.708;2022-07-23T06:58:44;10.00;;;9.17;;
1831;SDS011;1680;48.106;11.708;2022-07-23T07:01:11;9.80;;;9.10;;
1831;SDS011;1680;48.106;11.708;2022-07-23T07:03:38;9.40;;;8.60;;
1831;SDS011;1680;48.106;11.708;2022-07-23T07:06:06;8.93;;;8.13;;
1831;SDS011;1680;48.106;11.708;2022-07-23T07:08:33;9.47;;;8.57;;
1831;SDS011;1680;48.106;11.708;2022-07-23T07:10:59;9.03;;;8.30;;
1831;SDS011;1680;48.106;11.708;2022-07-23T07:13:26;8.27;;;7.60;;
1831;SDS011;1680;48.106;11.708;2022-07-23T07:15:53;9.13;;;8.33;;
1831;SDS011;1680;48.106;11.708;2022-07-23T07:18:19;9.87;;;9.07;;
1831;SDS011;1680;48.106;11.708;2022-07-23T07:20:46;11.70;;;8.87;;
1831;SDS011;1680;48.106;11.708;2022-07-23T07:23:14;8.97;;;8.07;;
1831;SDS011;1680;48.106;11.708;2022-07-23T07:25:41;9.30;;;8.57;;
1831;SDS011;1680;48.106;11.708;2022-07-23T07:28:07;8.90;;;8.23;;
1831;SDS011;1680;48.106;11.708;2022-07-23T07:30:34;8.67;;;8.00;;
1831;SDS011;1680;48.106;11.708;2022-07-23T07:33:01;8.80;;;8.10;;
1831;SDS011;1680;48.106;11.708;2022-07-23T07:35:28;8.70;;;7.93;;
1831;SDS011;1680;48.106;11.708;2022-07-23T07:37:56;9.13;;;8.43;;
1831;SDS011;1680;48.106;11.708;2022-07-23T07:40:24;9.10;;;8.30;;
1831;SDS011;1680;48.106;11.708;2022-07-23T07:42:52;9.37;;;8.67;;
1831;SDS011;1680;48.106;11.708;2022-07-23T07:45:22;8.70;;;7.93;;
1831;SDS011;1680;48.106;11.708;2022-07-23T07:47:49;8.50;;;7.90;;
1831;SDS011;1680;48.106;11.708;2022-07-23T07:50:16;9.13;;;8.17;;
1831;SDS011;1680;48.106;11.708;2022-07-23T07:52:43;8.93;;;8.20;;
1831;SDS011;1680;48.106;11.708;2022-07-23T07:55:10;9.30;;;8.40;;
1831;SDS011;1680;48.106;11.708;2022-07-23T07:57:38;9.73;;;8.93;;
1831;SDS011;1680;48.106;11.708;2022-07-23T08:00:07;9.00;;;8.30;;
1831;SDS011;1680;48.106;11.708;2022-07-23T08:02:42;9.20;;;8.50;;
1831;SDS011;1680;48.106;11.708;2022-07-23T08:05:10;9.23;;;8.47;;
1831;SDS011;1680;48.106;11.708;2022-07-23T08:07:37;9.80;;;9.00;;
1831;SDS011;1680;48.106;11.708;2022-07-23T08:10:05;9.27;;;8.57;;
1831;SDS011;1680;48.106;11.708;2022-07-23T08:12:41;10.00;;;9.10;;
1831;SDS011;1680;48.106;11.708;2022-07-23T08:15:11;9.50;;;8.73;;
1831;SDS011;1680;48.106;11.708;2022-07-23T08:17:38;9.63;;;8.90;;
1831;SDS011;1680;48.106;11.708;2022-07-23T08:20:05;9.13;;;8.43;;
1831;SDS011;1680;48.106;11.708;2022-07-23T08:22:42;9.43;;;8.43;;
1831;SDS011;1680;48.106;11.708;2022-07-23T08:25:10;9.70;;;8.90;;
1831;SDS011;1680;48.106;11.708;2022-07-23T08:27:37;10.30;;;9.43;;
1831;SDS011;1680;48.106;11.708;2022-07-23T08:30:06;10.47;;;9.67;;
1831;SDS011;1680;48.106;11.708;2022-07-23T08:32:47;9.07;;;8.37;;
1831;SDS011;1680;48.106;11.708;2022-07-23T08:35:15;9.23;;;8.53;;
1831;SDS011;1680;48.106;11.708;2022-07-23T08:37:42;9.17;;;8.47;;
1831;SDS011;1680;48.106;11.708;2022-07-23T08:40:09;9.20;;;8.50;;
1831;SDS011;1680;48.106;11.708;2022-07-23T08:42:37;9.30;;;8.40;;
1831;SDS011;1680;48.106;11.708;2022-07-23T08:45:06;9.60;;;8.80;;
1831;SDS011;1680;48.106;11.708;2022-07-23T08:47:33;9.50;;;8.70;;
1831;SDS011;1680;48.106;11.708;2022-07-23T08:50:02;8.97;;;8.27;;
1831;SDS011;1680;48.106;11.708;2022-07-23T08:52:30;9.67;;;8.70;;
1831;SDS011;1680;48.106;11.708;2022-07-23T08:54:57;9.50;;;8.70;;
1831;SDS011;1680;48.106;11.708;2022-07-23T08:57:24;9.50;;;8.70;;
1831;SDS011;1680;48.106;11.708;2022-07-23T08:59:51;8.77;;;8.17;;
1831;SDS011;1680;48.106;11.708;2022-07-23T09:02:19;8.83;;;8.13;;
1831;SDS011;1680;48.106;11.708;2022-07-23T09:04:46;9.00;;;8.30;;
1831;SDS011;1680;48.106;11.708;2022-07-23T09:07:13;9.40;;;8.63;;
1831;SDS011;1680;48.106;11.708;2022-07-23T09:09:40;8.97;;;8.27;;
1831;SDS011;1680;48.106;11.708;2022-07-23T09:12:08;8.43;;;7.80;;
1831;SDS011;1680;48.106;11.708;2022-07-23T09:14:37;9.33;;;8.63;;
1831;SDS011;1680;48.106;11.708;2022-07-23T09:17:08;9.27;;;8.57;;
1831;SDS011;1680;48.106;11.708;2022-07-23T09:19:38;9.23;;;8.53;;
1831;SDS011;1680;48.106;11.708;2022-07-23T09:22:18;9.50;;;8.60;;
1831;SDS011;1680;48.106;11.708;2022-07-23T09:25:05;8.70;;;8.00;;
1831;SDS011;1680;48.106;11.708;2022-07-23T09:27:50;8.43;;;7.80;;
1831;SDS011;1680;48.106;11.708;2022-07-23T09:30:19;8.87;;;8.17;;
1831;SDS011;1680;48.106;11.708;2022-07-23T09:35:46;8.83;;;8.13;;
1831;SDS011;1680;48.106;11.708;2022-07-23T09:38:15;8.80;;;8.10;;
1831;SDS011;1680;48.106;11.708;2022-07-23T09:40:43;8.90;;;8.23;;
1831;SDS011;1680;48.106;11.708;2022-07-23T09:43:10;8.30;;;7.60;;
1831;SDS011;1680;48.106;11.708;2022-07-23T09:45:38;8.90;;;8.20;;
1831;SDS011;1680;48.106;11.708;2022-07-23T09:48:12;8.20;;;7.57;;
1831;SDS011;1680;48.106;11.708;2022-07-23T09:50:42;9.10;;;8.30;;
1831;SDS011;1680;48.106;11.708;2022-07-23T09:53:11;8.90;;;8.30;;
1831;SDS011;1680;48.106;11.708;2022-07-23T09:55:50;8.80;;;8.10;;
1831;SDS011;1680;48.106;11.708;2022-07-23T09:58:18;8.83;;;8.17;;
1831;SDS011;1680;48.106;11.708;2022-07-23T10:00:48;8.60;;;8.00;;
1831;SDS011;1680;48.106;11.708;2022-07-23T10:03:16;8.40;;;7.70;;
1831;SDS011;1680;48.106;11.708;2022-07-23T10:05:45;8.60;;;7.90;;
1831;SDS011;1680;48.106;11.708;2022-07-23T10:08:14;8.00;;;7.40;;
1831;SDS011;1680;48.106;11.708;2022-07-23T10:10:44;7.90;;;7.30;;
1831;SDS011;1680;48.106;11.708;2022-07-23T10:13:12;8.13;;;7.40;;
1831;SDS011;1680;48.106;11.708;2022-07-23T10:15:56;7.97;;;7.40;;
1831;SDS011;1680;48.106;11.708;2022-07-23T10:18:23;8.07;;;7.37;;
1831;SDS011;1680;48.106;11.708;2022-07-23T10:20:50;7.40;;;6.70;;
1831;SDS011;1680;48.106;11.708;2022-07-23T10:23:22;8.27;;;7.47;;
1831;SDS011;1680;48.106;11.708;2022-07-23T10:25:56;7.07;;;6.47;;
1831;SDS011;1680;48.106;11.708;2022-07-23T10:28:38;7.93;;;7.23;;
1831;SDS011;1680;48.106;11.708;2022-07-23T10:31:20;7.67;;;7.00;;
1831;SDS011;1680;48.106;11.708;2022-07-23T10:34:12;7.10;;;6.50;;
1831;SDS011;1680;48.106;11.708;2022-07-23T10:36:47;7.30;;;6.67;;
1831;SDS011;1680;48.106;11.708;2022-07-23T10:39:19;7.87;;;7.20;;
1831;SDS011;1680;48.106;11.708;2022-07-23T10:41:50;7.70;;;7.10;;
1831;SDS011;1680;48.106;11.708;2022-07-23T10:44:17;7.20;;;6.70;;
1831;SDS011;1680;48.106;11.708;2022-07-23T10:46:53;7.33;;;6.77;;
1831;SDS011;1680;48.106;11.708;2022-07-23T10:49:27;7.33;;;6.73;;
1831;SDS011;1680;48.106;11.708;2022-07-23T10:54:46;7.53;;;6.93;;
1831;SDS011;1680;48.106;11.708;2022-07-23T10:57:15;7.10;;;6.50;;
1831;SDS011;1680;48.106;11.708;2022-07-23T11:02:47;7.60;;;6.97;;
1831;SDS011;1680;48.106;11.708;2022-07-23T11:05:15;7.47;;;6.97;;
1831;SDS011;1680;48.106;11.708;2022-07-23T11:10:44;7.23;;;6.73;;
1831;SDS011;1680;48.106;11.708;2022-07-23T11:13:30;7.30;;;6.70;;
1831;SDS011;1680;48.106;11.708;2022-07-23T11:16:05;7.53;;;6.83;;
1831;SDS011;1680;48.106;11.708;2022-07-23T11:21:44;7.47;;;6.93;;
1831;SDS011;1680;48.106;11.708;2022-07-23T11:24:22;8.17;;;7.53;;
1831;SDS011;1680;48.106;11.708;2022-07-23T11:26:58;8.07;;;7.27;;
1831;SDS011;1680;48.106;11.708;2022-07-23T11:29:40;6.97;;;6.47;;
1831;SDS011;1680;48.106;11.708;2022-07-23T11:35:21;7.27;;;6.57;;
1831;SDS011;1680;48.106;11.708;2022-07-23T11:37:50;7.37;;;6.77;;
1831;SDS011;1680;48.106;11.708;2022-07-23T11:40:23;7.20;;;6.70;;
1831;SDS011;1680;48.106;11.708;2022-07-23T11:42:53;7.33;;;6.83;;
1831;SDS011;1680;48.106;11.708;2022-07-23T11:45:22;9.07;;;7.23;;
1831;SDS011;1680;48.106;11.708;2022-07-23T11:47:49;7.80;;;7.20;;
1831;SDS011;1680;48.106;11.708;2022-07-23T11:50:16;8.30;;;7.50;;
1831;SDS011;1680;48.106;11.708;2022-07-23T11:52:43;7.33;;;6.63;;
1831;SDS011;1680;48.106;11.708;2022-07-23T11:55:10;7.43;;;6.83;;
1831;SDS011;1680;48.106;11.708;2022-07-23T11:57:41;7.20;;;6.67;;
1831;SDS011;1680;48.106;11.708;2022-07-23T12:00:11;8.30;;;6.80;;
1831;SDS011;1680;48.106;11.708;2022-07-23T12:02:40;8.30;;;7.50;;
1831;SDS011;1680;48.106;11.708;2022-07-23T12:05:11;7.60;;;7.10;;
1831;SDS011;1680;48.106;11.708;2022-07-23T12:07:40;7.90;;;7.23;;
1831;SDS011;1680;48.106;11.708;2022-07-23T12:10:10;7.90;;;7.27;;
1831;SDS011;1680;48.106;11.708;2022-07-23T12:12:40;8.07;;;7.37;;
1831;SDS011;1680;48.106;11.708;2022-07-23T12:15:08;7.80;;;7.20;;
1831;SDS011;1680;48.106;11.708;2022-07-23T12:17:38;8.40;;;7.60;;
1831;SDS011;1680;48.106;11.708;2022-07-23T12:20:06;8.00;;;7.30;;
1831;SDS011;1680;48.106;11.708;2022-07-23T12:22:36;8.90;;;8.20;;
1831;SDS011;1680;48.106;11.708;2022-07-23T12:25:05;9.00;;;8.20;;
1831;SDS011;1680;48.106;11.708;2022-07-23T12:27:34;8.73;;;8.03;;
1831;SDS011;1680;48.106;11.708;2022-07-23T12:32:47;7.83;;;7.13;;
1831;SDS011;1680;48.106;11.708;2022-07-23T12:35:15;8.93;;;8.03;;
1831;SDS011;1680;48.106;11.708;2022-07-23T12:37:42;8.50;;;7.80;;
1831;SDS011;1680;48.106;11.708;2022-07-23T12:40:27;9.13;;;8.43;;
1831;SDS011;1680;48.106;11.708;2022-07-23T12:42:56;7.70;;;7.00;;
1831;SDS011;1680;48.106;11.708;2022-07-23T12:45:25;8.57;;;7.87;;
1831;SDS011;1680;48.106;11.708;2022-07-23T12:47:57;9.13;;;8.43;;
1831;SDS011;1680;48.106;11.708;2022-07-23T12:53:17;8.83;;;8.03;;
1831;SDS011;1680;48.106;11.708;2022-07-23T12:55:45;8.60;;;7.90;;
1831;SDS011;1680;48.106;11.708;2022-07-23T12:58:14;8.03;;;7.43;;
1831;SDS011;1680;48.106;11.708;2022-07-23T13:00:57;8.50;;;7.90;;
1831;SDS011;1680;48.106;11.708;2022-07-23T13:03:27;8.90;;;8.23;;
1831;SDS011;1680;48.106;11.708;2022-07-23T13:05:55;8.30;;;7.60;;
1831;SDS011;1680;48.106;11.708;2022-07-23T13:08:23;8.93;;;8.23;;
1831;SDS011;1680;48.106;11.708;2022-07-23T13:10:51;8.23;;;7.53;;
1831;SDS011;1680;48.106;11.708;2022-07-23T13:13:19;8.73;;;7.83;;
1831;SDS011;1680;48.106;11.708;2022-07-23T13:15:47;8.33;;;7.63;;
1831;SDS011;1680;48.106;11.708;2022-07-23T13:18:16;8.83;;;8.13;;
1831;SDS011;1680;48.106;11.708;2022-07-23T13:20:43;8.00;;;7.30;;
1831;SDS011;1680;48.106;11.708;2022-07-23T13:23:10;8.70;;;7.90;;
1831;SDS011;1680;48.106;11.708;2022-07-23T13:25:37;9.10;;;8.40;;
1831;SDS011;1680;48.106;11.708;2022-07-23T13:28:04;7.63;;;7.03;;
1831;SDS011;1680;48.106;11.708;2022-07-23T13:30:31;8.17;;;7.47;;
1831;SDS011;1680;48.106;11.708;2022-07-23T13:32:58;8.83;;;8.10;;
1831;SDS011;1680;48.106;11.708;2022-07-23T13:35:27;9.43;;;8.63;;
1831;SDS011;1680;48.106;11.708;2022-07-23T13:37:53;9.07;;;8.30;;
1831;SDS011;1680;48.106;11.708;2022-07-23T13:40:20;8.50;;;7.90;;
1831;SDS011;1680;48.106;11.708;2022-07-23T13:42:47;8.70;;;7.90;;
1831;SDS011;1680;48.106;11.708;2022-07-23T13:45:16;7.90;;;7.30;;
1831;SDS011;1680;48.106;11.708;2022-07-23T13:47:43;7.87;;;7.33;;
1831;SDS011;1680;48.106;11.708;2022-07-23T13:50:09;8.97;;;8.20;;
1831;SDS011;1680;48.106;11.708;2022-07-23T13:52:38;8.60;;;7.90;;
1831;SDS011;1680;48.106;11.708;2022-07-23T13:55:05;7.93;;;7.23;;
1831;SDS011;1680;48.106;11.708;2022-07-23T13:57:32;8.60;;;7.97;;
1831;SDS011;1680;48.106;11.708;2022-07-23T13:59:59;8.20;;;7.60;;
1831;SDS011;1680;48.106;11.708;2022-07-23T14:02:27;7.73;;;7.13;;
1831;SDS011;1680;48.106;11.708;2022-07-23T14:04:53;7.60;;;7.03;;
1831;SDS011;1680;48.106;11.708;2022-07-23T14:07:20;8.13;;;7.43;;
1831;SDS011;1680;48.106;11.708;2022-07-23T14:09:48;6.90;;;6.40;;
1831;SDS011;1680;48.106;11.708;2022-07-23T14:12:15;8.17;;;7.57;;
1831;SDS011;1680;48.106;11.708;2022-07-23T14:14:42;7.53;;;6.80;;
1831;SDS011;1680;48.106;11.708;2022-07-23T14:17:09;8.07;;;7.47;;
1831;SDS011;1680;48.106;11.708;2022-07-23T14:19:36;8.07;;;7.33;;
1831;SDS011;1680;48.106;11.708;2022-07-23T14:22:02;8.40;;;7.70;;
1831;SDS011;1680;48.106;11.708;2022-07-23T14:24:29;7.90;;;7.23;;
1831;SDS011;1680;48.106;11.708;2022-07-23T14:26:58;8.30;;;7.70;;
1831;SDS011;1680;48.106;11.708;2022-07-23T14:29:25;9.23;;;7.53;;
1831;SDS011;1680;48.106;11.708;2022-07-23T14:31:52;8.27;;;7.53;;
1831;SDS011;1680;48.106;11.708;2022-07-23T14:34:19;8.43;;;7.73;;
1831;SDS011;1680;48.106;11.708;2022-07-23T14:36:45;8.83;;;8.20;;
1831;SDS011;1680;48.106;11.708;2022-07-23T14:39:12;7.90;;;7.30;;
1831;SDS011;1680;48.106;11.708;2022-07-23T14:41:39;8.73;;;8.00;;
1831;SDS011;1680;48.106;11.708;2022-07-23T14:44:07;8.53;;;7.83;;
1831;SDS011;1680;48.106;11.708;2022-07-23T14:46:34;12.53;;;8.60;;
1831;SDS011;1680;48.106;11.708;2022-07-23T14:49:01;8.43;;;7.63;;
1831;SDS011;1680;48.106;11.708;2022-07-23T14:51:28;8.07;;;7.47;;
1831;SDS011;1680;48.106;11.708;2022-07-23T14:53:55;7.43;;;6.83;;
1831;SDS011;1680;48.106;11.708;2022-07-23T14:56:21;7.63;;;6.93;;
1831;SDS011;1680;48.106;11.708;2022-07-23T14:58:48;8.30;;;7.70;;
1831;SDS011;1680;48.106;11.708;2022-07-23T15:01:16;8.87;;;8.13;;
1831;SDS011;1680;48.106;11.708;2022-07-23T15:03:43;8.00;;;7.40;;
1831;SDS011;1680;48.106;11.708;2022-07-23T15:06:11;8.37;;;7.67;;
1831;SDS011;1680;48.106;11.708;2022-07-23T15:08:37;9.23;;;8.43;;
1831;SDS011;1680;48.106;11.708;2022-07-23T15:11:04;8.67;;;8.07;;
1831;SDS011;1680;48.106;11.708;2022-07-23T15:13:34;8.70;;;8.00;;
1831;SDS011;1680;48.106;11.708;2022-07-23T15:16:01;8.73;;;8.10;;
1831;SDS011;1680;48.106;11.708;2022-07-23T15:18:30;8.50;;;7.80;;
1831;SDS011;1680;48.106;11.708;2022-07-23T15:20:57;8.40;;;7.73;;
1831;SDS011;1680;48.106;11.708;2022-07-23T15:23:24;9.20;;;8.50;;
1831;SDS011;1680;48.106;11.708;2022-07-23T15:25:51;8.97;;;8.27;;
1831;SDS011;1680;48.106;11.708;2022-07-23T15:28:17;9.67;;;8.97;;
1831;SDS011;1680;48.106;11.708;2022-07-23T15:30:44;9.03;;;8.33;;